Time;durP1;ratioP1;P1;durP2;ratioP2;P2;SDS_P1;SDS_P2;PMS_P1;PMS_P2;Temp;Humidity;BMP_temperature;BMP_pressure;BME280_temperature;BME280_humidity;BME280_pressure;Samples;Min_cycle;Max_cycle;Signal;HPM_P1;HPM_P2
2022/11/12 00:06:55;;;;;;;40.90;22.00;;;;;;;6.24;80.28;100076.30;421723;1295;110039;-41
2022/11/12 00:17:02;;;;;;;37.50;22.90;;;;;;;6.19;80.34;100091.91;421647;1299;108094;-41
2022/11/12 00:27:09;;;;;;;42.50;25.40;;;;;;;6.10;80.56;100096.82;421486;1292;96034;-41
2022/11/12 00:37:17;;;;;;;47.70;25.80;;;;;;;6.00;80.59;100103.92;421411;1295;108101;-41
2022/11/12 00:47:24;;;;;;;44.50;24.70;;;;;;;5.97;80.88;100103.17;421570;1297;96969;-43
2022/11/12 00:57:32;;;;;;;46.30;26.70;;;;;;;6.01;81.10;100111.83;421662;1297;108022;-41
2022/11/12 01:07:39;;;;;;;48.30;27.80;;;;;;;6.00;81.16;100105.66;421674;1299;108297;-39
2022/11/12 01:17:46;;;;;;;52.00;27.10;;;;;;;6.04;81.08;100102.58;421581;1282;96153;-41
2022/11/12 01:27:53;;;;;;;42.20;25.70;;;;;;;5.95;81.08;100096.04;421741;1290;107788;-40
2022/11/12 01:38:00;;;;;;;51.20;26.70;;;;;;;5.86;81.14;100088.58;421703;1289;96519;-40
2022/11/12 01:48:08;;;;;;;41.20;24.40;;;;;;;5.82;81.21;100093.45;421628;1299;110510;-40
2022/11/12 01:58:18;;;;;;;42.90;22.90;;;;;;;5.76;81.31;100097.87;421640;1299;106610;-40
2022/11/12 02:08:26;;;;;;;43.50;23.00;;;;;;;5.67;81.16;100108.29;421621;1292;96114;-40
2022/11/12 02:18:34;;;;;;;41.10;22.00;;;;;;;5.61;81.31;100109.52;421526;1291;108295;-40
2022/11/12 02:28:40;;;;;;;49.90;28.40;;;;;;;5.50;81.29;100102.55;421597;1299;95430;-40
2022/11/12 02:38:47;;;;;;;59.20;31.10;;;;;;;5.28;81.38;100104.04;421746;1299;110210;-40
2022/11/12 02:48:54;;;;;;;37.30;22.50;;;;;;;5.12;81.42;100112.30;421278;1288;106321;-41
2022/11/12 02:59:01;;;;;;;42.40;25.50;;;;;;;5.05;81.57;100110.77;421593;1290;96265;-41
2022/11/12 03:09:11;;;;;;;39.00;22.60;;;;;;;5.05;81.66;100114.77;421656;1290;109303;-41
2022/11/12 03:19:18;;;;;;;34.00;21.50;;;;;;;5.05;81.74;100113.27;421627;1297;108377;-40
2022/11/12 03:39:32;;;;;;;36.20;22.10;;;;;;;5.00;81.75;100115.64;421424;1299;108237;-41
2022/11/12 03:49:39;;;;;;;37.00;20.40;;;;;;;5.03;81.97;100111.75;421600;1290;96030;-40
2022/11/12 03:59:46;;;;;;;35.50;19.50;;;;;;;5.01;81.84;100106.46;421472;1299;108640;-41
2022/11/12 04:09:53;;;;;;;33.40;18.40;;;;;;;4.94;81.79;100106.05;421771;1299;109298;-41
2022/11/12 04:30:25;;;;;;;44.80;25.10;;;;;;;4.69;82.05;100098.02;421655;1299;110755;-41
2022/11/12 04:51:00;;;;;;;29.90;18.50;;;;;;;4.51;82.18;100088.86;422958;1293;106560;-39
2022/11/12 05:01:07;;;;;;;35.30;20.80;;;;;;;4.56;82.27;100085.58;422898;1285;97501;-39
2022/11/12 05:11:15;;;;;;;32.40;19.20;;;;;;;4.57;82.25;100080.96;422898;1288;108385;-40
2022/11/12 05:31:49;;;;;;;28.10;17.20;;;;;;;4.65;82.39;100074.90;422869;1296;110727;-39
2022/11/12 05:41:56;;;;;;;29.80;17.00;;;;;;;4.63;82.28;100087.84;422730;1286;108298;-39
2022/11/12 05:52:19;;;;;;;30.40;17.80;;;;;;;4.61;82.37;100101.06;422983;1296;97899;-39
2022/11/12 06:02:26;;;;;;;37.80;20.40;;;;;;;4.53;82.33;100104.91;422914;1296;108467;-40
2022/11/12 06:12:33;;;;;;;40.80;21.50;;;;;;;4.41;82.43;100117.83;423048;1292;97975;-41
2022/11/12 06:22:40;;;;;;;33.40;18.00;;;;;;;4.43;82.49;100120.77;422716;1284;97598;-41
2022/11/12 06:32:47;;;;;;;32.40;20.20;;;;;;;4.50;82.31;100133.90;422591;1296;107189;-41
2022/11/12 06:42:56;;;;;;;41.70;19.80;;;;;;;4.64;82.42;100144.30;423154;1296;98545;-41
2022/11/12 06:53:03;;;;;;;64.30;35.20;;;;;;;4.75;82.45;100163.26;422664;1289;109337;-40
2022/11/12 07:03:13;;;;;;;65.70;34.90;;;;;;;4.88;82.59;100162.33;422778;1298;109779;-41
2022/11/12 07:13:20;;;;;;;53.40;32.30;;;;;;;5.30;82.83;100160.06;422882;1296;97892;-41
2022/11/12 07:23:28;;;;;;;55.80;27.20;;;;;;;6.56;83.29;100147.73;422834;1289;98331;-41
2022/11/12 07:33:36;;;;;;;37.90;23.50;;;;;;;7.85;82.71;100146.98;422558;1295;106106;-40
2022/11/12 07:43:45;;;;;;;43.50;26.20;;;;;;;8.36;81.98;100154.55;422649;1296;97551;-41
2022/11/12 07:53:55;;;;;;;44.40;25.50;;;;;;;8.25;81.51;100151.47;422730;1291;107768;-41
2022/11/12 08:04:08;;;;;;;33.10;20.40;;;;;;;8.27;81.71;100148.53;422899;1295;108989;-41
2022/11/12 08:14:15;;;;;;;29.30;17.80;;;;;;;8.84;82.21;100154.92;422636;1282;98155;-41
2022/11/12 08:24:22;;;;;;;25.00;15.90;;;;;;;9.82;82.27;100162.41;422695;1285;110022;-41
2022/11/12 08:34:29;;;;;;;35.00;19.50;;;;;;;9.81;80.99;100168.99;422762;1287;107038;-41
2022/11/12 08:44:36;;;;;;;29.60;14.10;;;;;;;10.03;80.86;100163.81;422856;1295;97851;-41
2022/11/12 08:54:43;;;;;;;20.60;12.90;;;;;;;10.22;80.41;100166.73;422954;1289;107642;-42
2022/11/12 09:04:50;;;;;;;20.50;11.90;;;;;;;10.52;79.99;100174.32;422644;1296;98014;-41
2022/11/12 09:14:57;;;;;;;22.10;13.30;;;;;;;10.80;79.79;100184.09;422769;1279;110584;-41
2022/11/12 09:25:24;;;;;;;25.60;16.00;;;;;;;10.98;79.21;100194.31;422744;1296;108457;-39
2022/11/12 09:35:31;;;;;;;25.20;15.20;;;;;;;10.94;79.10;100196.00;422841;1296;98594;-39
2022/11/12 09:45:38;;;;;;;23.70;13.50;;;;;;;10.77;78.78;100196.65;422653;1289;110780;-39
2022/11/12 09:55:50;;;;;;;31.40;16.60;;;;;;;10.21;78.63;100201.25;422681;1292;108785;-40
2022/11/12 10:06:01;;;;;;;29.10;14.40;;;;;;;10.07;78.93;100199.50;422702;1296;97179;-40
2022/11/12 10:16:46;;;;;;;27.40;16.70;;;;;;;9.90;79.05;100212.09;422518;1296;107705;-40
2022/11/12 10:26:57;;;;;;;32.70;16.30;;;;;;;9.75;79.23;100209.32;422736;1278;97870;-39
2022/11/12 10:37:07;;;;;;;29.70;16.60;;;;;;;9.59;79.54;100212.21;422622;1296;111320;-41
2022/11/12 10:47:31;;;;;;;31.60;16.50;;;;;;;9.55;79.70;100214.84;422845;1286;108537;-41
2022/11/12 10:57:39;;;;;;;34.60;17.30;;;;;;;9.52;79.75;100210.71;422526;1294;97532;-41
2022/11/12 11:07:50;;;;;;;30.50;15.90;;;;;;;9.60;79.90;100205.55;422797;1296;110781;-41
2022/11/12 11:17:58;;;;;;;28.30;16.10;;;;;;;9.75;80.05;100209.94;422573;1289;266662;-41
2022/11/12 11:28:05;;;;;;;33.60;17.90;;;;;;;9.77;80.06;100201.91;422367;1295;98558;-42
2022/11/12 11:38:20;;;;;;;45.20;25.20;;;;;;;9.72;80.00;100203.36;422563;1286;111001;-41
2022/11/12 11:48:31;;;;;;;31.60;17.20;;;;;;;9.75;79.93;100211.00;422330;1296;107031;-41
2022/11/12 11:58:58;;;;;;;36.40;20.40;;;;;;;9.72;80.17;100204.33;423081;1292;97487;-41
2022/11/12 12:09:06;;;;;;;34.40;18.30;;;;;;;9.67;80.19;100203.33;422784;1295;109699;-41
2022/11/12 12:19:14;;;;;;;32.30;16.90;;;;;;;9.55;80.09;100199.62;422844;1296;108334;-41
2022/11/12 12:29:23;;;;;;;33.30;18.40;;;;;;;9.49;79.95;100193.63;422853;1294;97891;-41
2022/11/12 12:39:30;;;;;;;29.40;18.20;;;;;;;9.52;80.13;100192.80;422243;1286;113203;-40
2022/11/12 12:49:39;;;;;;;30.30;18.30;;;;;;;9.46;80.33;100196.46;422563;1295;107099;-40
2022/11/12 12:59:47;;;;;;;30.50;18.00;;;;;;;9.29;80.35;100192.17;422752;1295;96674;-40
2022/11/12 13:10:31;;;;;;;93.00;47.20;;;;;;;9.15;80.23;100191.61;422490;1296;110428;-42
2022/11/12 13:21:03;;;;;;;45.50;25.60;;;;;;;9.16;80.61;100192.88;422534;1295;107175;-40
2022/11/12 13:31:24;;;;;;;30.50;17.30;;;;;;;9.30;80.54;100184.36;422674;1296;97197;-41
2022/11/12 13:51:59;;;;;;;34.10;19.10;;;;;;;9.01;80.79;100173.59;422864;1296;97504;-40
2022/11/12 14:02:16;;;;;;;31.10;18.30;;;;;;;8.82;80.86;100162.26;423023;1294;96669;-42
2022/11/12 14:12:34;;;;;;;34.70;19.30;;;;;;;8.71;80.84;100150.44;422594;1296;107597;-40
2022/11/12 14:32:47;;;;;;;40.30;20.40;;;;;;;8.42;81.26;100146.99;422747;1294;108967;-40
2022/11/12 14:42:55;;;;;;;50.90;26.70;;;;;;;8.33;81.54;100147.50;422939;1278;107140;-41
2022/11/12 14:53:05;;;;;;;46.20;24.60;;;;;;;8.22;81.81;100147.71;423238;1293;97870;-40
2022/11/12 15:03:15;;;;;;;48.70;26.20;;;;;;;8.04;81.70;100137.69;422759;1294;108537;-41
2022/11/12 15:13:26;;;;;;;56.90;30.10;;;;;;;7.84;81.86;100133.22;422684;1285;107066;-41
2022/11/12 15:23:33;;;;;;;59.10;29.70;;;;;;;7.75;82.05;100144.83;422768;1296;97892;-42
2022/11/12 15:33:41;;;;;;;93.00;48.70;;;;;;;7.60;82.05;100143.92;422583;1293;108474;-41
2022/11/12 15:43:48;;;;;;;96.70;47.20;;;;;;;7.41;82.17;100151.38;422882;1296;97860;-40
2022/11/12 15:53:55;;;;;;;59.20;28.50;;;;;;;7.25;82.33;100152.10;422630;1296;109493;-40
2022/11/12 16:04:03;;;;;;;68.10;31.10;;;;;;;7.18;82.32;100159.76;422564;1296;107629;-40
2022/11/12 16:14:14;;;;;;;82.60;42.00;;;;;;;7.12;82.43;100157.42;422595;1296;98548;-41
2022/11/12 16:24:21;;;;;;;51.90;25.90;;;;;;;6.97;82.35;100167.84;422692;1279;108170;-40
2022/11/12 16:44:35;;;;;;;55.80;27.70;;;;;;;7.03;82.74;100173.67;422520;1294;112277;-41
2022/11/12 16:54:42;;;;;;;68.60;39.10;;;;;;;7.03;82.81;100163.05;422615;1288;107073;-40
2022/11/12 17:04:49;;;;;;;67.80;36.00;;;;;;;7.03;83.09;100169.23;422549;1296;97892;-41
2022/11/12 17:14:56;;;;;;;84.80;42.10;;;;;;;7.04;83.12;100171.77;422508;1294;109165;-39
2022/11/12 17:25:04;;;;;;;83.00;42.70;;;;;;;7.12;83.26;100167.77;422727;1296;97889;-40
2022/11/12 17:35:11;;;;;;;85.30;45.10;;;;;;;7.25;83.50;100175.77;422589;1304;110921;-41
2022/11/12 17:45:18;;;;;;;80.40;39.50;;;;;;;7.47;83.70;100183.71;422637;1292;107267;-41
2022/11/12 17:55:26;;;;;;;60.70;30.30;;;;;;;7.62;83.80;100183.02;422757;1296;98032;-40
2022/11/12 18:05:33;;;;;;;64.70;36.80;;;;;;;7.73;83.71;100184.40;422722;1288;108447;-41
2022/11/12 18:15:40;;;;;;;65.30;34.50;;;;;;;7.81;83.74;100183.97;422560;1292;97870;-41
2022/11/12 18:25:47;;;;;;;65.30;38.40;;;;;;;7.79;83.77;100177.39;422785;1285;110723;-41
2022/11/12 18:36:00;;;;;;;72.80;37.80;;;;;;;7.75;83.87;100172.27;422625;1286;109774;-40
2022/11/12 18:46:09;;;;;;;59.70;30.90;;;;;;;7.64;83.75;100176.46;422559;1286;97908;-40
2022/11/12 18:56:18;;;;;;;48.00;27.20;;;;;;;7.62;83.93;100170.32;422602;1296;108839;-41
2022/11/12 19:06:26;;;;;;;50.50;31.60;;;;;;;7.69;83.89;100179.42;422543;1286;100162;-41
2022/11/12 19:16:33;;;;;;;50.80;27.90;;;;;;;7.72;83.97;100183.05;422637;1296;109487;-40
2022/11/12 19:26:40;;;;;;;52.00;29.90;;;;;;;7.80;83.96;100182.55;422376;1294;108540;-41
2022/11/12 19:36:48;;;;;;;48.90;26.50;;;;;;;7.70;83.74;100183.83;422847;1287;100226;-41
2022/11/12 19:47:15;;;;;;;55.20;29.60;;;;;;;7.65;83.95;100184.73;422581;1296;108162;-40
2022/11/12 20:07:29;;;;;;;52.60;29.40;;;;;;;7.64;83.87;100174.52;422556;1294;110873;-40
2022/11/12 20:17:37;;;;;;;46.30;26.90;;;;;;;7.54;83.91;100182.46;422644;1296;108373;-41
2022/11/12 20:27:45;;;;;;;62.60;32.40;;;;;;;7.52;83.92;100189.08;422616;1278;97968;-41
2022/11/12 20:37:52;;;;;;;47.50;30.00;;;;;;;7.66;84.06;100193.27;422767;1294;107191;-41
2022/11/12 20:47:59;;;;;;;58.10;30.50;;;;;;;7.71;84.07;100187.53;422708;1286;97509;-41
2022/11/12 20:58:08;;;;;;;65.10;34.90;;;;;;;7.64;83.82;100193.70;422628;1292;108316;-40
2022/11/12 21:08:15;;;;;;;57.50;32.00;;;;;;;7.37;83.60;100192.44;422558;1296;107825;-41
2022/11/12 21:18:26;;;;;;;55.20;30.60;;;;;;;7.18;83.79;100182.39;422629;1296;97899;-41
2022/11/12 21:28:33;;;;;;;50.80;28.40;;;;;;;7.23;83.97;100183.87;422760;1299;107834;-40
2022/11/12 21:48:50;;;;;;;52.80;29.30;;;;;;;7.47;83.95;100194.90;422603;1286;111181;-41
2022/11/12 21:59:03;;;;;;;65.50;36.00;;;;;;;7.49;83.89;100196.80;422586;1286;108587;-41
2022/11/12 22:09:10;;;;;;;65.10;35.70;;;;;;;7.47;84.01;100197.33;422721;1294;97865;-41
2022/11/12 22:19:20;;;;;;;65.20;35.10;;;;;;;7.37;83.91;100195.66;422672;1293;111556;-41
2022/11/12 22:29:27;;;;;;;65.60;36.20;;;;;;;7.36;83.94;100189.42;422506;1294;108770;-40
2022/11/12 22:39:34;;;;;;;62.90;34.00;;;;;;;7.40;83.99;100178.09;422652;1299;97907;-41
2022/11/12 22:49:41;;;;;;;71.10;36.10;;;;;;;7.43;83.97;100174.98;422533;1296;107228;-40
2022/11/12 22:59:48;;;;;;;63.80;35.60;;;;;;;7.41;83.91;100172.42;422537;1299;98036;-41
2022/11/12 23:09:56;;;;;;;61.50;34.70;;;;;;;7.52;84.10;100185.36;422524;1294;246070;-41
2022/11/12 23:20:03;;;;;;;71.10;38.40;;;;;;;7.56;84.11;100182.85;422861;1286;109050;-41
2022/11/12 23:30:12;;;;;;;89.40;45.20;;;;;;;7.47;84.13;100180.68;422717;1286;97906;-40
2022/11/12 23:40:18;;;;;;;77.40;38.60;;;;;;;7.37;83.95;100179.77;422621;1296;107185;-41
2022/11/12 23:50:25;;;;;;;82.60;42.90;;;;;;;7.24;83.84;100181.83;422493;1296;98099;-40
